Aviation Digital Data Service (ADDS)

Output produced by METARs form (1102 UTC 17 June 2019)
found at http://www.aviationweather.gov/metar/data/
 
Forecast for: VTPP (PHITSANULOK , TH)
Text: TAF VTPP 170500Z 1706/1806 20005KT 9999 SCT025
Forecast period: 0600 UTC 17 June 2019 to 0600 UTC 18 June 2019
Forecast type: FROM: standard forecast or significant change
Winds: from the SSW (200 degrees) at 6 MPH (5 knots; 2.6 m/s)
Visibility: 6 or more miles 10+ km)
Ceiling: at least 12,000 feet AGL
Clouds: scattered clouds at 2500 feet AGL
Weather: no significant weather forecast for this period
Text: TEMPO 1709/1713 VRB15G30KT 5000 TSRA FEW020CB BKN025 OVC080
Forecast period: 0900 to 1300 UTC 17 June 2019
Forecast type: TEMPORARY: The following changes expected for less than half the time period
Winds: variable direction winds at 17 MPH (15 knots; 7.7 m/s)
gusting to 34 MPH (30 knots; 15.4 m/s)
Visibility: 3 miles (5 km)
Ceiling: 2500 feet AGL
Clouds: few clouds at 2000 feet AGL
broken clouds at 2500 feet AGL
overcast cloud deck at 8000 feet AGL
Weather: TSRA  (rain associated with thunderstorm(s))